createdAt,value
2018-09-27T00:04:01.246Z,9.8
2018-09-27T00:09:01.276Z,9.9
2018-09-27T00:14:01.235Z,10.2
2018-09-27T00:19:06.267Z,10.5
2018-09-27T00:24:06.237Z,9.9
2018-09-27T00:29:06.306Z,9.8
2018-09-27T00:34:06.245Z,10.2
2018-09-27T00:39:06.253Z,9.8
2018-09-27T00:44:01.274Z,9.6
2018-09-27T00:54:01.257Z,10.0
2018-09-27T00:59:06.239Z,9.6
2018-09-27T01:04:01.270Z,9.5
2018-09-27T01:14:01.274Z,9.0
2018-09-27T01:19:01.275Z,8.8
2018-09-27T01:24:06.240Z,8.4
2018-09-27T01:29:01.280Z,9.0
2018-09-27T01:34:06.243Z,9.2
2018-09-27T01:39:06.249Z,9.3
2018-09-27T01:44:01.286Z,9.7
2018-09-27T01:49:01.265Z,10.6
2018-09-27T01:54:01.284Z,10.4
2018-09-27T02:04:01.234Z,10.9
2018-09-27T02:09:01.275Z,10.5
2018-09-27T02:14:06.255Z,10.4
2018-09-27T02:19:01.281Z,10.7
2018-09-27T02:24:01.289Z,11.0
2018-09-27T02:29:01.282Z,10.8
2018-09-27T02:35:01.268Z,11.1
2018-09-27T02:40:06.235Z,11.3
2018-09-27T02:45:01.266Z,11.4
2018-09-27T02:50:06.242Z,11.1
2018-09-27T02:55:06.250Z,11.0
2018-09-27T03:00:06.249Z,10.7
2018-09-27T03:05:01.234Z,11.0
2018-09-27T03:10:01.242Z,11.1
2018-09-27T03:15:01.301Z,11.4
2018-09-27T03:20:01.249Z,11.3
2018-09-27T03:25:01.241Z,11.3
2018-09-27T03:30:01.245Z,10.6
2018-09-27T03:35:01.247Z,9.9
2018-09-27T03:40:01.408Z,9.2
2018-09-27T03:45:01.228Z,9.4
2018-09-27T03:50:01.357Z,9.2
2018-09-27T03:55:01.233Z,8.9
2018-09-27T04:00:01.235Z,8.4
2018-09-27T04:10:01.242Z,8.0
2018-09-27T04:15:01.251Z,7.8
2018-09-27T04:20:01.243Z,7.6
2018-09-27T04:25:01.241Z,7.6
2018-09-27T04:30:01.318Z,7.4
2018-09-27T04:35:01.243Z,7.8
2018-09-27T04:45:01.259Z,7.6
2018-09-27T04:50:01.249Z,7.7
2018-09-27T04:55:01.249Z,7.7
2018-09-27T05:00:01.522Z,7.5
2018-09-27T05:05:01.232Z,7.3
2018-09-27T05:15:01.259Z,6.8
2018-09-27T05:20:01.238Z,6.5
2018-09-27T05:25:01.248Z,6.0
2018-09-27T05:30:01.245Z,6.2
2018-09-27T05:35:01.244Z,6.0
2018-09-27T05:40:01.239Z,6.4
2018-09-27T05:45:01.239Z,6.6
2018-09-27T05:55:01.240Z,6.1
2018-09-27T06:00:01.244Z,6.0
2018-09-27T06:05:01.258Z,5.8
2018-09-27T06:10:01.278Z,5.7
2018-09-27T06:15:01.251Z,5.7
2018-09-27T06:25:01.257Z,5.8
2018-09-27T06:30:01.306Z,5.9
2018-09-27T06:35:01.509Z,5.8
2018-09-27T06:40:01.343Z,5.6
2018-09-27T06:45:01.253Z,5.7
2018-09-27T06:50:01.248Z,5.5
2018-09-27T06:55:01.536Z,5.5
2018-09-27T07:00:01.246Z,5.8
2018-09-27T07:05:01.365Z,6.1
2018-09-27T07:10:01.311Z,6.7
2018-09-27T07:15:01.311Z,7.1
2018-09-27T07:20:01.250Z,7.2
2018-09-27T07:30:01.265Z,7.8
2018-09-27T07:36:01.240Z,7.5
2018-09-27T07:41:01.241Z,7.9
2018-09-27T07:46:01.244Z,8.4
2018-09-27T07:51:01.273Z,9.0
2018-09-27T07:56:06.250Z,9.6
2018-09-27T08:01:06.255Z,10.7
2018-09-27T08:06:06.268Z,11.2
2018-09-27T08:12:01.639Z,12.0
2018-09-27T08:17:01.689Z,12.1
2018-09-27T08:22:01.247Z,12.3
2018-09-27T08:27:01.246Z,12.6
2018-09-27T08:32:06.250Z,13.5
2018-09-27T08:37:01.274Z,13.9
2018-09-27T08:42:06.235Z,14.5
2018-09-27T08:47:01.266Z,14.8
2018-09-27T08:52:06.237Z,15.0
2018-09-27T08:57:01.266Z,15.1
2018-09-27T09:02:06.239Z,16.0
2018-09-27T09:07:01.268Z,16.9
2018-09-27T09:12:01.416Z,17.4
2018-09-27T09:17:01.670Z,18.9
2018-09-27T09:22:01.244Z,20.4
2018-09-27T09:28:06.232Z,21.6
2018-09-27T09:33:06.234Z,22.6
2018-09-27T09:38:06.239Z,24.0
2018-09-27T09:48:01.264Z,23.8
2018-09-27T09:53:01.242Z,23.1
2018-09-27T09:58:01.260Z,23.3
2018-09-27T10:03:01.300Z,24.0
2018-09-27T10:08:01.238Z,25.2
2018-09-27T10:13:01.233Z,26.6
2018-09-27T10:18:01.239Z,28.3
2018-09-27T10:23:01.242Z,29.2
2018-09-27T10:28:01.245Z,29.7
2018-09-27T10:39:01.263Z,29.8
2018-09-27T10:44:06.256Z,29.6
2018-09-27T10:49:01.239Z,29.6
2018-09-27T10:54:01.251Z,29.6
2018-09-27T10:59:01.244Z,29.9
2018-09-27T11:09:01.306Z,28.2
2018-09-27T11:14:01.241Z,27.0
2018-09-27T11:19:01.246Z,24.6
2018-09-27T11:25:01.231Z,23.2
2018-09-27T11:30:01.245Z,22.1
2018-09-27T11:35:01.236Z,21.6
2018-09-27T11:40:01.376Z,21.9
2018-09-27T11:45:01.243Z,24.6
2018-09-27T11:50:01.633Z,26.4
2018-09-27T11:55:01.351Z,29.0
2018-09-27T12:01:01.239Z,32.0
2018-09-27T12:06:01.235Z,35.1
2018-09-27T12:11:01.429Z,36.4
2018-09-27T12:16:01.233Z,37.6
2018-09-27T12:21:01.430Z,38.2
2018-09-27T12:26:01.305Z,38.6
2018-09-27T12:36:01.240Z,36.6
2018-09-27T12:41:01.437Z,35.4
2018-09-27T12:46:01.524Z,33.5
2018-09-27T12:51:01.460Z,32.5
2018-09-27T12:56:01.605Z,31.5
2018-09-27T13:01:01.704Z,30.5
2018-09-27T13:06:01.301Z,29.4
2018-09-27T13:11:01.237Z,28.5
2018-09-27T13:16:01.382Z,27.6
2018-09-27T13:21:01.247Z,27.3
2018-09-27T13:31:02.462Z,28.5
2018-09-27T13:36:01.421Z,28.5
2018-09-27T13:41:01.247Z,27.8
2018-09-27T13:46:01.236Z,27.6
2018-09-27T13:51:06.672Z,27.2
2018-09-27T13:56:01.248Z,26.5
2018-09-27T14:01:01.477Z,27.5
2018-09-27T14:11:01.226Z,28.4
2018-09-27T14:21:01.235Z,28.3
2018-09-27T14:26:01.406Z,28.0
2018-09-27T14:31:01.554Z,28.5
2018-09-27T14:36:01.301Z,27.6
2018-09-27T14:41:01.460Z,26.6
2018-09-27T14:46:01.305Z,26.2
2018-09-27T14:51:06.311Z,25.3
2018-09-27T14:56:01.341Z,23.6
2018-09-27T15:01:01.361Z,23.2
2018-09-27T15:06:01.358Z,22.6
2018-09-27T15:11:01.432Z,21.4
2018-09-27T15:16:01.231Z,20.8
2018-09-27T15:21:01.496Z,19.7
2018-09-27T15:26:01.306Z,19.6
2018-09-27T15:31:01.353Z,18.8
2018-09-27T15:36:01.268Z,18.0
2018-09-27T15:41:01.250Z,16.8
2018-09-27T15:47:01.245Z,16.4
2018-09-27T15:52:01.241Z,15.0
2018-09-27T15:57:01.242Z,14.2
2018-09-27T16:02:01.259Z,13.2
2018-09-27T16:07:01.258Z,13.2
2018-09-27T16:12:01.247Z,12.8
2018-09-27T16:17:06.257Z,12.8
2018-09-27T16:22:01.446Z,13.4
2018-09-27T16:27:01.234Z,14.0
2018-09-27T16:32:01.235Z,14.3
2018-09-27T16:37:01.233Z,15.4
2018-09-27T16:42:01.236Z,16.2
2018-09-27T16:47:01.243Z,16.0
2018-09-27T16:52:01.236Z,17.0
2018-09-27T16:57:01.248Z,17.4
2018-09-27T17:02:01.248Z,17.2
2018-09-27T17:07:01.245Z,16.8
2018-09-27T17:12:01.233Z,17.0
2018-09-27T17:17:01.242Z,17.0
2018-09-27T17:22:01.234Z,16.8
2018-09-27T17:27:01.238Z,16.8
2018-09-27T17:32:01.245Z,17.1
2018-09-27T17:37:01.243Z,17.9
2018-09-27T17:42:01.244Z,17.6
2018-09-27T17:47:06.250Z,17.4
2018-09-27T17:52:06.313Z,17.7
2018-09-27T17:57:01.234Z,17.0
2018-09-27T18:02:01.237Z,16.1
2018-09-27T18:07:06.235Z,15.4
2018-09-27T18:12:06.365Z,14.9
2018-09-27T18:17:06.579Z,14.3
2018-09-27T18:22:01.274Z,14.7
2018-09-27T18:27:06.244Z,14.6
2018-09-27T18:32:01.273Z,14.9
2018-09-27T18:37:01.264Z,15.4
2018-09-27T18:42:01.263Z,15.6
2018-09-27T18:47:06.235Z,16.1
2018-09-27T18:52:06.307Z,17.5
2018-09-27T18:57:06.309Z,18.9
2018-09-27T19:02:06.566Z,20.2
2018-09-27T19:07:06.265Z,21.7
2018-09-27T19:12:01.347Z,21.5
2018-09-27T19:17:01.632Z,21.6
2018-09-27T19:22:01.283Z,22.1
2018-09-27T19:27:01.346Z,21.4
2018-09-27T19:32:01.273Z,21.3
2018-09-27T19:37:01.277Z,22.4
2018-09-27T19:42:01.298Z,23.6
2018-09-27T19:47:01.289Z,23.7
2018-09-27T19:52:01.514Z,26.0
2018-09-27T20:02:01.365Z,26.8
2018-09-27T20:12:01.372Z,25.7
2018-09-27T20:17:02.520Z,22.3
2018-09-27T20:22:01.466Z,19.8
2018-09-27T20:27:01.230Z,16.9
2018-09-27T20:32:01.361Z,14.5
2018-09-27T20:37:01.235Z,12.6
2018-09-27T20:42:01.239Z,11.9
2018-09-27T20:47:01.241Z,11.6
2018-09-27T20:52:01.306Z,11.6
2018-09-27T20:57:01.233Z,11.2
2018-09-27T21:02:01.344Z,10.4
2018-09-27T21:07:01.245Z,10.4
2018-09-27T21:12:01.244Z,10.5
2018-09-27T21:17:01.242Z,10.2
2018-09-27T21:22:03.260Z,9.8
2018-09-27T21:27:01.254Z,10.3
2018-09-27T21:32:01.301Z,10.0
2018-09-27T21:37:01.238Z,9.5
2018-09-27T21:42:01.431Z,9.4
2018-09-27T21:52:01.510Z,9.0
2018-09-27T21:57:01.579Z,8.9
2018-09-27T22:02:01.252Z,8.6
2018-09-27T22:08:01.244Z,7.7
2018-09-27T22:13:01.284Z,6.4
2018-09-27T22:18:01.249Z,5.2
2018-09-27T22:23:01.251Z,4.0
2018-09-27T22:28:01.386Z,3.2
2018-09-27T22:33:01.495Z,2.6
2018-09-27T22:43:01.240Z,2.6
2018-09-27T22:48:01.245Z,2.4
2018-09-27T22:53:01.410Z,2.4
2018-09-27T22:58:02.195Z,2.6
2018-09-27T23:08:01.236Z,2.8
2018-09-27T23:13:01.242Z,3.0
2018-09-27T23:23:01.324Z,3.0
2018-09-27T23:28:01.275Z,2.9
2018-09-27T23:33:01.257Z,3.1
2018-09-27T23:43:01.237Z,3.5
2018-09-27T23:48:01.236Z,3.3
2018-09-27T23:53:06.424Z,3.4
2018-09-27T23:58:01.235Z,3.0
